Latest Weather Observations for Gingin Airport

IDW60801

Issued at 10:13 pm WST Wednesday 8 July 2020 (issued every 10 minutes, with the page automatically refreshed every 10 minutes)

About weather observations | Map of weather stations | Latest weather observations for WA | Other Formats
Station Details ID: 009178 Name: GINGIN AERO Lat: -31.46 Lon: 115.86 Height: 73.0 m
Data from the previous 72 hours. | See also: Recent months at Gingin Airport
Date/Time
WST
Temp
°C
App
Temp
°C
Dew
Point
°C
Rel
Hum
%
Delta-T
°C
Wind Press
QNH
hPa
Press
MSL
hPa
Rain since
9am
mm
Dir  Spd
km/h
Gust
km/h
Spd
kts
Gust
kts
08/10:00pm 6.4 5.4 5.5 94 0.4 CALM 0 0 0 0 1024.2 1024.2 -
08/09:30pm 7.4 5.3 6.5 94 0.4 E 7 9 4 5 1024.3 1024.3 -
08/09:00pm 7.6 6.8 6.7 94 0.4 CALM 0 0 0 0 1024.3 1024.3 -
08/08:30pm 8.1 7.4 7.0 93 0.5 CALM 0 0 0 0 1024.2 1024.2 -
08/08:00pm 8.4 7.8 7.3 93 0.5 CALM 0 0 0 0 1024.0 1024.0 -
08/07:30pm 9.1 8.6 7.9 92 0.6 CALM 0 0 0 0 1023.8 1023.8 -
08/07:00pm 10.3 10.1 9.1 92 0.6 CALM 0 0 0 0 1023.8 1023.8 -
08/06:30pm 11.8 10.9 10.5 92 0.7 SE 6 7 3 4 1023.7 1023.7 -
08/06:00pm 11.9 12.1 10.5 91 0.7 CALM 0 0 0 0 1023.4 1023.4 -
08/05:30pm 13.0 12.4 11.6 91 0.7 SE 6 7 3 4 1023.4 1023.4 -
08/05:00pm 13.3 12.8 11.9 91 0.7 ESE 6 7 3 4 1023.4 1023.4 -
08/04:30pm 13.3 11.8 11.9 91 0.8 E 11 15 6 8 1023.4 1023.4 -
08/04:00pm 13.2 12.1 11.8 91 0.7 SSE 9 11 5 6 1023.2 1023.2 -
08/03:30pm 13.7 10.9 11.4 86 1.2 SW 17 20 9 11 1023.0 1023.0 -
08/03:00pm 15.1 13.4 9.9 71 2.7 SSE 9 15 5 8 1022.7 1022.7 -
08/02:30pm 15.3 12.6 10.5 73 2.5 SSW 15 19 8 10 1022.8 1022.8 -
08/02:00pm 15.5 12.0 10.9 74 2.4 SW 20 24 11 13 1023.1 1023.1 -
08/01:30pm 15.9 13.9 10.2 69 3.0 WSW 11 13 6 7 1023.2 1023.2 -
08/01:00pm 16.2 14.0 9.2 63 3.6 WSW 11 15 6 8 1023.4 1023.4 -
08/12:30pm 16.5 15.0 9.0 61 3.9 W 7 13 4 7 1023.7 1023.7 -
08/12:00pm 16.6 15.2 9.5 63 3.7 NNE 7 17 4 9 1024.3 1024.3 -
08/11:30am 16.2 14.6 10.3 68 3.1 N 9 13 5 7 1024.8 1024.8 -
08/11:00am 15.6 14.2 10.8 73 2.5 NNE 9 11 5 6 1024.9 1024.9 -
08/10:30am 14.2 13.1 11.9 86 1.2 NNE 9 11 5 6 1025.2 1025.2 -
08/10:00am 13.4 12.5 12.5 94 0.5 NNE 9 11 5 6 1025.2 1025.2 -
08/09:30am 12.3 11.5 11.7 96 0.3 S 7 11 4 6 1025.4 1025.4 -
08/09:00am 12.1 11.4 11.5 96 0.3 NE 6 7 3 4 1024.9 1024.9 -
08/08:30am 11.8 12.2 11.3 97 0.3 CALM 0 0 0 0 1024.6 1024.6 -
08/08:00am 10.8 10.9 10.3 97 0.3 CALM 0 0 0 0 1024.3 1024.3 -
08/07:30am 10.3 9.9 9.7 96 0.3 NNW 2 7 1 4 1023.8 1023.8 -
08/07:00am 10.9 9.9 10.3 96 0.3 N 6 9 3 5 1023.5 1023.5 -
08/06:30am 11.6 11.9 11.0 96 0.3 CALM 0 6 0 3 1023.4 1023.4 -
08/06:00am 11.8 10.9 11.2 96 0.3 NE 7 9 4 5 1023.3 1023.3 -
08/05:30am 11.7 10.9 11.1 96 0.3 NE 6 9 3 5 1023.3 1023.3 -
08/05:00am 11.7 10.7 11.1 96 0.3 NE 7 9 4 5 1023.2 1023.2 -
08/04:30am 11.9 10.6 11.3 96 0.3 SSE 9 11 5 6 1023.2 1023.2 -
08/04:00am 11.9 11.0 11.3 96 0.3 ESE 7 9 4 5 1023.1 1023.1 -
08/03:30am 11.9 11.0 11.3 96 0.3 NNE 7 9 4 5 1023.0 1023.0 -
08/03:00am 11.9 11.2 11.3 96 0.3 NE 6 7 3 4 1023.1 1023.1 -
08/02:30am 12.0 11.1 11.4 96 0.3 NE 7 9 4 5 1023.0 1023.0 -
08/02:00am 12.0 11.1 11.4 96 0.3 N 7 9 4 5 1023.0 1023.0 -
08/01:30am 12.1 11.2 11.5 96 0.3 E 7 9 4 5 1022.7 1022.7 -
08/01:00am 11.9 11.6 11.3 96 0.3 WSW 4 11 2 6 1023.0 1023.0 -
08/12:30am 11.5 9.7 10.7 95 0.4 NNW 11 17 6 9 1022.8 1022.8 -
08/12:00am 11.3 9.0 10.5 95 0.4 NW 13 17 7 9 1022.9 1022.9 -
 
Date/Time
WST
Temp
°C
App
Temp
°C
Dew
Point
°C
Rel
Hum
%
Delta-T
°C
Wind Press
QNH
hPa
Press
MSL
hPa
Rain since
9am
mm
Dir  Spd
km/h
Gust
km/h
Spd
kts
Gust
kts
07/11:30pm 11.0 8.6 10.2 95 0.4 NNW 13 19 7 10 1023.0 1023.0 -
07/11:00pm 10.2 8.0 9.4 95 0.4 N 11 13 6 7 1022.7 1022.7 -
07/10:30pm 10.5 8.4 9.6 94 0.5 N 11 15 6 8 1022.9 1022.9 -
07/10:00pm 10.7 8.6 9.8 94 0.5 NNW 11 13 6 7 1023.1 1023.1 -
07/09:30pm 10.8 9.1 9.9 94 0.5 NNW 9 11 5 6 1023.2 1023.2 -
07/09:00pm 10.8 9.1 9.9 94 0.5 N 9 11 5 6 1023.1 1023.1 -
07/08:30pm 11.2 9.2 10.1 93 0.6 N 11 11 6 6 1023.0 1023.0 -
07/08:00pm 11.7 9.4 10.6 93 0.6 N 13 15 7 8 1023.0 1023.0 -
07/07:30pm 12.2 10.1 11.1 93 0.6 WNW 13 20 7 11 1022.9 1022.9 -
07/07:00pm 11.8 10.3 10.5 92 0.7 NW 9 13 5 7 1022.7 1022.7 -
07/06:30pm 12.0 10.5 10.7 92 0.7 NNW 9 11 5 6 1022.5 1022.5 -
07/06:00pm 12.6 11.3 11.2 91 0.7 NNW 9 11 5 6 1022.3 1022.3 -
07/05:30pm 13.1 11.5 11.5 90 0.9 WNW 11 15 6 8 1022.3 1022.3 -
07/05:00pm 13.5 12.3 11.7 89 1.0 WNW 9 11 5 6 1022.3 1022.3 -
07/04:30pm 13.6 11.2 11.5 87 1.1 WNW 15 20 8 11 1022.5 1022.5 -
07/04:00pm 14.3 11.0 11.6 84 1.4 WSW 20 30 11 16 1022.4 1022.4 -
07/03:30pm 15.0 11.7 11.0 77 2.1 W 19 32 10 17 1022.3 1022.3 -
07/03:00pm 16.1 12.5 10.0 67 3.2 W 19 26 10 14 1022.1 1022.1 -
07/02:30pm 15.5 12.6 11.1 75 2.4 NW 17 24 9 13 1022.1 1022.1 -
07/02:00pm 16.5 12.9 9.9 65 3.5 W 19 26 10 14 1022.1 1022.1 -
07/01:30pm 16.0 12.2 9.9 67 3.2 W 20 28 11 15 1022.3 1022.3 -
07/01:00pm 16.6 12.5 10.2 66 3.4 W 22 33 12 18 1022.6 1022.6 -
07/12:52pm 16.3 12.7 10.6 69 3.0 W 20 33 11 18 1022.6 1022.6 -
07/12:30pm 14.9 15.0 12.8 87 1.2 W 4 7 2 4 1022.8 1022.8 -
07/12:00pm 14.0 12.5 12.0 88 1.1 SW 11 15 6 8 1023.2 1023.2 -
07/11:30am 15.2 12.9 11.8 80 1.8 NNW 15 20 8 11 1023.5 1023.5 -
07/11:00am 14.8 14.0 13.0 89 1.0 N 9 13 5 7 1023.8 1023.8 -
07/10:30am 13.4 11.4 11.6 89 1.0 NW 13 17 7 9 1024.2 1024.2 -
07/10:00am 14.2 12.8 12.1 87 1.1 NNW 11 17 6 9 1024.1 1024.1 -
07/09:30am 13.7 10.7 10.5 81 1.7 NNW 17 24 9 13 1024.0 1024.0 -
07/09:00am 13.4 10.5 11.1 86 1.2 N 17 22 9 12 1023.6 1023.6 -
07/08:30am 12.2 10.3 10.6 90 0.8 N 11 15 6 8 1023.3 1023.3 -
07/08:00am 11.7 10.4 9.9 89 0.9 WNW 7 13 4 7 1023.1 1023.1 -
07/07:30am 10.6 9.2 8.9 89 0.8 N 6 9 3 5 1023.1 1023.1 -
07/07:00am 10.7 8.4 9.0 89 0.8 NNW 11 15 6 8 1022.8 1022.8 -
07/06:30am 10.7 8.7 8.8 88 0.9 NNW 9 13 5 7 1022.4 1022.4 -
07/06:00am 10.5 8.5 8.6 88 0.9 N 9 11 5 6 1021.8 1021.8 -
07/05:30am 10.9 8.5 8.8 87 1.0 N 11 15 6 8 1021.6 1021.6 -
07/05:00am 11.4 10.0 9.5 88 1.0 WSW 7 9 4 5 1021.6 1021.6 -
07/04:30am 11.1 9.6 9.2 88 1.0 W 7 13 4 7 1021.6 1021.6 -
07/04:00am 10.8 8.9 9.1 89 0.8 N 9 11 5 6 1021.5 1021.5 -
07/03:30am 10.5 8.5 8.8 89 0.8 N 9 15 5 8 1021.6 1021.6 -
07/03:00am 10.1 8.5 8.0 87 1.0 N 6 11 3 6 1021.2 1021.2 -
07/02:30am 11.1 8.8 9.0 87 1.0 NW 11 17 6 9 1021.3 1021.3 -
07/02:00am 9.9 7.7 7.7 86 1.1 NNW 9 11 5 6 1021.3 1021.3 -
07/01:30am 10.4 7.8 7.8 84 1.3 N 11 11 6 6 1021.1 1021.1 -
07/01:00am 10.5 10.0 7.7 83 1.3 CALM 0 9 0 5 1021.1 1021.1 -
07/12:30am 10.6 8.4 7.7 82 1.4 NNW 9 11 5 6 1021.2 1021.2 -
07/12:00am 11.0 8.4 7.9 81 1.5 NNW 11 13 6 7 1021.2 1021.2 -
 
Date/Time
WST
Temp
°C
App
Temp
°C
Dew
Point
°C
Rel
Hum
%
Delta-T
°C
Wind Press
QNH
hPa
Press
MSL
hPa
Rain since
9am
mm
Dir  Spd
km/h
Gust
km/h
Spd
kts
Gust
kts
06/11:30pm 11.0 8.9 8.1 82 1.4 NW 9 11 5 6 1021.4 1021.4 -
06/11:00pm 11.5 9.1 8.5 82 1.5 NNW 11 17 6 9 1021.4 1021.4 -
06/10:30pm 11.0 8.0 7.7 80 1.6 NNW 13 15 7 8 1021.3 1021.3 -
06/10:00pm 11.3 8.3 7.8 79 1.7 N 13 15 7 8 1021.2 1021.2 -
06/09:30pm 11.3 8.7 7.6 78 1.8 NNW 11 15 6 8 1021.3 1021.3 -
06/09:00pm 10.8 8.3 6.7 76 1.9 NNW 9 13 5 7 1021.1 1021.1 -
06/08:30pm 11.6 8.9 7.3 75 2.1 NW 11 15 6 8 1021.1 1021.1 -
06/08:00pm 11.7 9.3 7.2 74 2.2 NNW 9 13 5 7 1021.0 1021.0 -
06/07:30pm 12.0 9.2 6.9 71 2.4 NNW 11 13 6 7 1020.7 1020.7 -
06/07:00pm 12.9 10.2 7.4 69 2.7 NW 11 13 6 7 1020.6 1020.6 -
06/06:30pm 13.8 11.2 7.6 66 3.1 NW 11 15 6 8 1020.2 1020.2 -
06/06:00pm 14.7 11.3 7.7 63 3.5 NW 15 20 8 11 1020.0 1020.0 -
06/05:30pm 15.5 11.5 8.3 62 3.6 WNW 19 32 10 17 1019.4 1019.4 -
06/05:00pm 16.2 11.4 7.4 56 4.4 WNW 22 35 12 19 1019.0 1019.0 -
06/04:30pm 17.2 11.3 7.5 53 4.9 WNW 28 43 15 23 1018.8 1018.8 -
06/04:00pm 17.0 11.5 9.2 60 4.1 NW 28 43 15 23 1018.7 1018.7 -
06/03:30pm 17.1 11.3 9.5 61 4.0 WNW 30 41 16 22 1018.5 1018.5 -
06/03:00pm 18.1 12.5 8.7 54 4.9 WNW 28 39 15 21 1018.1 1018.1 -
06/02:30pm 18.7 12.0 7.2 47 5.8 WNW 32 46 17 25 1017.9 1017.9 -
06/02:17pm 18.5 12.5 7.0 47 5.8 WNW 28 46 15 25 1017.9 1017.9 -
06/02:00pm 18.2 11.4 7.9 51 5.3 WNW 33 48 18 26 1017.9 1017.9 -
06/01:30pm 17.6 11.3 9.0 57 4.5 WNW 32 46 17 25 1018.0 1018.0 -
06/01:03pm 17.4 12.0 9.6 60 4.1 WNW 28 46 15 25 1018.1 1018.1 -
06/01:00pm 17.8 12.8 9.4 58 4.4 WNW 26 43 14 23 1018.0 1018.0 -
06/12:30pm 18.3 11.9 8.6 53 5.0 WNW 32 46 17 25 1018.2 1018.2 -
06/12:00pm 18.7 12.8 8.9 53 5.1 WNW 30 43 16 23 1018.3 1018.3 -
06/11:33am 17.1 11.5 8.8 58 4.3 WNW 28 52 15 28 1018.6 1018.6 -
06/11:30am 17.2 11.6 8.9 58 4.3 WNW 28 43 15 23 1018.6 1018.6 -
06/11:00am 16.5 11.6 9.9 65 3.5 WNW 26 41 14 22 1018.5 1018.5 -
06/10:30am 18.0 12.9 7.7 51 5.2 NW 24 35 13 19 1018.4 1018.4 -
06/10:00am 16.6 13.6 10.5 67 3.2 NW 17 28 9 15 1018.5 1018.5 -
06/09:30am 15.2 12.1 10.4 73 2.5 NNW 17 26 9 14 1018.4 1018.4 -
06/09:00am 13.6 11.2 11.3 86 1.2 N 15 19 8 10 1018.0 1018.0 -
06/08:30am 13.3 11.5 12.0 92 0.7 NNW 13 22 7 12 1017.7 1017.7 -
06/08:00am 12.0 9.9 11.1 94 0.5 N 13 19 7 10 1017.3 1017.3 -
06/07:30am 11.3 9.0 10.4 94 0.5 N 13 17 7 9 1016.8 1016.9 -
06/07:00am 10.8 9.1 9.7 93 0.6 N 9 13 5 7 1016.5 1016.6 -
06/06:30am 11.0 9.2 9.6 91 0.7 N 9 9 5 5 1016.2 1016.3 -
06/06:00am 11.8 9.5 10.4 91 0.7 NNW 13 19 7 10 1016.1 1016.2 -
06/05:30am 12.1 9.8 10.5 90 0.8 N 13 17 7 9 1015.5 1015.6 -
06/05:00am 12.4 10.9 10.5 88 1.0 NNW 9 11 5 6 1015.6 1015.7 -
06/04:30am 13.0 11.6 10.9 87 1.1 NNW 9 13 5 7 1015.6 1015.7 -
06/04:00am 13.6 12.4 11.5 87 1.1 NNW 9 15 5 8 1015.5 1015.6 -
06/03:30am 13.3 11.7 11.4 88 1.0 N 11 15 6 8 1015.4 1015.5 -
06/03:00am 13.8 12.7 11.8 88 1.1 N 9 11 5 6 1015.6 1015.7 -
06/02:30am 14.2 13.2 12.4 89 1.0 NNW 9 13 5 7 1015.5 1015.6 -
06/02:00am 13.8 12.1 12.5 92 0.7 NW 13 26 7 14 1015.5 1015.6 -
06/01:30am 13.9 13.4 12.6 92 0.7 N 7 9 4 5 1015.2 1015.3 -
06/01:00am 14.0 13.1 12.7 92 0.7 NNE 9 11 5 6 1015.3 1015.4 -
06/12:30am 13.9 13.3 12.3 90 0.9 NNE 7 9 4 5 1015.7 1015.8 -
06/12:00am 14.4 13.5 12.6 89 1.0 NE 9 11 5 6 1015.8 1015.9 -
 
Date/Time
WST
Temp
°C
App
Temp
°C
Dew
Point
°C
Rel
Hum
%
Delta-T
°C
Wind Press
QNH
hPa
Press
MSL
hPa
Rain since
9am
mm
Dir  Spd
km/h
Gust
km/h
Spd
kts
Gust
kts
05/11:30pm 14.8 14.3 12.7 87 1.2 WSW 7 11 4 6 1016.3 1016.4 -
05/11:00pm 15.2 14.3 12.7 85 1.4 WSW 9 13 5 7 1016.5 1016.6 -
05/10:30pm 15.7 13.0 13.0 84 1.5 WSW 19 24 10 13 1016.6 1016.7 -

Other formats

Comma delimited format used in spreadsheet applications
http://www.bom.gov.au/fwo/IDW60801/IDW60801.95612.axf

JavaScript Object Notation format (JSON) in row-major order
http://www.bom.gov.au/fwo/IDW60801/IDW60801.95612.json

Data quality

Most of these data are generated automatically and are frequently updated. Quality checks on data are not normally performed. It is possible for incorrect values to appear. Refer to information at About Latest Weather Observations and please check the disclaimer before using these data.